Time;durP1;ratioP1;P1;durP2;ratioP2;P2;SDS_P1;SDS_P2;PMS_P1;PMS_P2;Temp;Humidity;BMP_temperature;BMP_pressure;BME280_temperature;BME280_humidity;BME280_pressure;Samples;Min_cycle;Max_cycle;Signal;HPM_P1;HPM_P2
2021/12/25 00:02:24;;;;;;;5.15;0.75;;;-0.20;99.90;;;;;;5101606;28;20077;-61
2021/12/25 00:04:50;;;;;;;7.32;1.00;;;-0.20;99.90;;;;;;5106021;28;20035;-61
2021/12/25 00:07:15;;;;;;;5.07;0.60;;;-0.20;99.90;;;;;;5106052;28;20051;-61
2021/12/25 00:09:41;;;;;;;4.15;0.50;;;-0.20;99.90;;;;;;5102036;28;20075;-61
2021/12/25 00:12:07;;;;;;;6.45;0.52;;;-0.20;99.90;;;;;;5103250;28;20047;-61
2021/12/25 00:14:33;;;;;;;3.90;1.35;;;-0.20;99.90;;;;;;5104922;28;20062;-61
2021/12/25 00:17:00;;;;;;;3.58;1.02;;;-0.20;99.90;;;;;;5085731;28;20094;-61
2021/12/25 00:19:25;;;;;;;7.65;0.35;;;-0.20;99.90;;;;;;5086538;28;20043;-61
2021/12/25 00:21:51;;;;;;;8.65;0.77;;;-0.30;99.90;;;;;;5104355;27;20039;-61
2021/12/25 00:24:17;;;;;;;8.80;0.70;;;-0.30;99.90;;;;;;5088190;28;20032;-61
2021/12/25 00:26:52;;;;;;;6.40;0.50;;;-0.40;99.90;;;;;;5086124;28;20051;-61
2021/12/25 00:34:47;;;;;;;6.07;0.50;;;-0.40;99.90;;;;;;5095548;28;20517;-61
2021/12/25 00:37:13;;;;;;;2.85;0.30;;;-0.40;99.90;;;;;;5096677;28;20515;-61
2021/12/25 00:39:38;;;;;;;8.93;0.70;;;-0.40;99.90;;;;;;5078153;28;20043;-61
2021/12/25 00:42:06;;;;;;;4.90;0.40;;;-0.50;99.90;;;;;;5078209;28;20968;-61
2021/12/25 00:44:33;;;;;;;3.80;0.80;;;-0.50;99.90;;;;;;5078341;28;20052;-61
2021/12/25 00:47:00;;;;;;;2.83;0.47;;;-0.30;99.90;;;;;;5084094;28;20043;-61
2021/12/25 00:49:26;;;;;;;4.60;0.40;;;-0.50;99.90;;;;;;5079020;28;20054;-61
2021/12/25 00:51:52;;;;;;;2.10;0.52;;;-0.60;99.90;;;;;;5074673;28;20039;-61
2021/12/25 00:54:18;;;;;;;1.60;0.25;;;-0.60;99.90;;;;;;5097572;28;20051;-61
2021/12/25 00:56:43;;;;;;;1.90;0.30;;;-0.60;99.90;;;;;;5095885;28;20040;-61
2021/12/25 00:59:09;;;;;;;4.53;0.40;;;-0.70;99.90;;;;;;5110890;27;20036;-61
2021/12/25 01:01:36;;;;;;;3.78;0.57;;;-0.60;99.90;;;;;;5095853;28;20126;-61
2021/12/25 01:04:02;;;;;;;6.05;1.27;;;-0.80;99.90;;;;;;5076938;28;20127;-61
2021/12/25 01:06:28;;;;;;;2.63;0.70;;;-0.50;99.90;;;;;;5079535;28;20557;-61
2021/12/25 01:08:54;;;;;;;2.05;0.60;;;-0.70;99.90;;;;;;5079482;28;20130;-61
2021/12/25 01:11:20;;;;;;;3.47;0.40;;;-0.80;99.90;;;;;;5096110;28;20084;-61
2021/12/25 01:13:55;;;;;;;1.85;0.25;;;-0.80;99.90;;;;;;5096336;28;20493;-61
2021/12/25 01:35:30;;;;;;;1.42;0.28;;;-1.10;99.90;;;;;;5080338;28;20070;-61
2021/12/25 01:38:03;;;;;;;2.13;0.28;;;-1.10;99.90;;;;;;5097866;28;20501;-61
2021/12/25 01:48:37;;;;;;;2.80;0.30;;;-1.10;99.90;;;;;;5080862;28;20087;-61
2021/12/25 01:51:03;;;;;;;3.90;0.90;;;-1.20;99.90;;;;;;5082963;28;20055;-61
2021/12/25 01:53:29;;;;;;;6.03;0.60;;;-1.20;99.90;;;;;;5079844;28;20043;-61
2021/12/25 01:55:57;;;;;;;3.45;0.60;;;-1.20;99.90;;;;;;5100392;28;20108;-61
2021/12/25 01:58:22;;;;;;;3.97;0.30;;;-1.20;99.90;;;;;;5100686;28;20040;-61
2021/12/25 02:00:52;;;;;;;3.80;0.47;;;-1.20;99.90;;;;;;5084968;28;20101;-61
2021/12/25 02:03:21;;;;;;;10.00;0.40;;;-1.30;99.90;;;;;;5081467;28;20047;-61
2021/12/25 02:05:48;;;;;;;3.08;0.45;;;-1.30;99.90;;;;;;5082346;28;20044;-61
2021/12/25 02:08:13;;;;;;;6.35;0.65;;;-1.40;99.90;;;;;;5082530;28;20067;-61
2021/12/25 02:10:39;;;;;;;4.30;0.57;;;-1.30;99.90;;;;;;5101332;28;20508;-61
2021/12/25 02:13:05;;;;;;;4.07;0.60;;;-1.40;99.90;;;;;;5080874;28;20068;-61
2021/12/25 02:15:33;;;;;;;1.30;0.20;;;-1.50;99.90;;;;;;5081462;27;20078;-61
2021/12/25 02:20:32;;;;;;;4.03;1.30;;;-1.50;99.90;;;;;;5084252;28;20044;-61
2021/12/25 02:23:04;;;;;;;4.57;0.38;;;-1.10;99.90;;;;;;5081500;28;20048;-61
2021/12/25 02:25:35;;;;;;;3.17;0.32;;;-1.50;99.90;;;;;;5081622;28;20039;-61
2021/12/25 02:28:03;;;;;;;1.83;0.13;;;-1.60;99.90;;;;;;5099832;28;20044;-61
2021/12/25 02:30:28;;;;;;;3.70;0.35;;;-1.30;99.90;;;;;;5102652;28;20123;-61
2021/12/25 02:32:55;;;;;;;3.72;0.40;;;-1.70;99.90;;;;;;5102889;28;20441;-61
2021/12/25 02:35:20;;;;;;;1.90;0.70;;;-1.50;99.90;;;;;;5088623;28;20039;-61
2021/12/25 02:37:46;;;;;;;3.97;0.30;;;-1.70;99.90;;;;;;5102556;28;20038;-61
2021/12/25 02:40:13;;;;;;;1.80;0.30;;;-1.70;99.90;;;;;;5089227;28;20063;-61
2021/12/25 02:42:40;;;;;;;3.70;0.30;;;-1.70;99.90;;;;;;5101942;28;20105;-61
2021/12/25 02:45:15;;;;;;;2.45;0.30;;;-1.80;99.90;;;;;;5069588;28;20062;-61
2021/12/25 02:47:55;;;;;;;1.95;0.40;;;-1.80;99.90;;;;;;5088488;28;20477;-61
2021/12/25 02:50:30;;;;;;;3.47;0.35;;;-1.40;99.90;;;;;;5104807;28;20443;-61
2021/12/25 02:52:58;;;;;;;5.82;0.45;;;-1.40;99.90;;;;;;5103717;28;20042;-61
2021/12/25 02:55:25;;;;;;;4.22;0.47;;;-1.80;99.90;;;;;;5107030;28;21223;-61
2021/12/25 02:57:52;;;;;;;4.15;0.35;;;-1.90;99.90;;;;;;5102393;28;20447;-61
2021/12/25 03:00:27;;;;;;;4.50;0.40;;;-1.70;99.90;;;;;;5104685;27;20625;-61
2021/12/25 03:02:52;;;;;;;4.57;1.17;;;-1.90;99.90;;;;;;5083778;28;20066;-61
2021/12/25 03:05:18;;;;;;;4.95;0.35;;;-1.70;99.90;;;;;;5084622;28;20485;-61
2021/12/25 03:07:44;;;;;;;2.22;0.75;;;-1.90;99.90;;;;;;5105237;28;20715;-61
2021/12/25 03:10:12;;;;;;;2.70;0.40;;;-1.90;99.90;;;;;;5105159;28;20443;-61
2021/12/25 03:15:46;;;;;;;4.50;0.30;;;-2.00;99.90;;;;;;5049743;28;20071;-61
2021/12/25 03:18:24;;;;;;;1.83;0.38;;;-2.10;99.90;;;;;;5087107;28;20054;-61
2021/12/25 03:20:54;;;;;;;2.78;0.22;;;-2.10;99.90;;;;;;5113744;27;20039;-61
2021/12/25 03:23:22;;;;;;;3.20;0.30;;;-2.10;99.90;;;;;;5085432;28;20052;-61
2021/12/25 03:25:51;;;;;;;1.08;0.20;;;-2.10;99.90;;;;;;5086170;28;20040;-61
2021/12/25 03:28:18;;;;;;;2.80;0.30;;;-2.10;99.90;;;;;;5073886;28;20130;-61
2021/12/25 03:30:44;;;;;;;9.15;1.65;;;-2.20;99.90;;;;;;5085432;28;20039;-61
2021/12/25 03:33:14;;;;;;;2.28;0.90;;;-2.20;99.90;;;;;;5083471;28;20047;-61
2021/12/25 03:35:39;;;;;;;1.00;0.20;;;-2.20;99.90;;;;;;5105064;28;20394;-61
2021/12/25 03:38:08;;;;;;;0.80;0.20;;;-2.30;99.90;;;;;;5088164;28;20096;-61
2021/12/25 03:40:34;;;;;;;1.20;0.30;;;-2.30;99.90;;;;;;5106103;28;20393;-61
2021/12/25 03:43:00;;;;;;;2.63;0.40;;;-2.30;99.90;;;;;;5101108;28;20442;-61
2021/12/25 03:45:29;;;;;;;1.05;0.15;;;-2.30;99.90;;;;;;5103348;28;20123;-61
2021/12/25 03:48:05;;;;;;;2.75;0.35;;;-2.30;99.90;;;;;;5090665;28;20579;-61
2021/12/25 03:58:44;;;;;;;2.83;0.20;;;-2.40;99.90;;;;;;5087380;28;20058;-61
2021/12/25 04:01:28;;;;;;;2.33;0.20;;;-2.50;99.90;;;;;;5086291;28;20075;-61
2021/12/25 04:04:34;;;;;;;2.50;0.20;;;-2.50;99.90;;;;;;5087438;28;20401;-61
2021/12/25 04:06:59;;;;;;;3.65;1.48;;;-2.50;99.90;;;;;;5078380;28;20062;-61
2021/12/25 04:09:29;;;;;;;2.80;0.32;;;-2.60;99.90;;;;;;5103709;28;20031;-61
2021/12/25 04:11:58;;;;;;;2.30;0.25;;;-2.60;99.90;;;;;;5082860;28;20055;-61
2021/12/25 04:14:24;;;;;;;1.55;0.30;;;-2.60;99.90;;;;;;5086680;28;20050;-61
2021/12/25 04:16:50;;;;;;;1.65;0.20;;;-2.70;99.90;;;;;;5102929;28;20524;-61
2021/12/25 04:19:17;;;;;;;3.10;0.50;;;-2.70;99.90;;;;;;5105122;28;20055;-61
2021/12/25 04:21:56;;;;;;;1.95;0.13;;;-2.70;99.90;;;;;;5100241;28;20047;-61
2021/12/25 04:24:23;;;;;;;2.35;0.20;;;-2.70;99.90;;;;;;5087330;28;20044;-61
2021/12/25 04:26:50;;;;;;;2.13;0.40;;;-2.70;99.90;;;;;;5083988;28;20911;-61
2021/12/25 05:01:58;;;;;;;2.10;0.20;;;-2.90;99.90;;;;;;5113654;27;20083;-61
2021/12/25 05:04:32;;;;;;;1.30;0.28;;;-2.30;99.90;;;;;;5104138;28;20040;-61
2021/12/25 05:06:58;;;;;;;2.58;0.20;;;-2.90;99.90;;;;;;5084751;28;20086;-61
2021/12/25 05:09:24;;;;;;;3.40;0.30;;;-3.00;99.90;;;;;;5103435;28;20074;-61
2021/12/25 05:11:49;;;;;;;1.38;0.20;;;-3.00;99.90;;;;;;5085329;28;20047;-61
2021/12/25 05:14:15;;;;;;;1.67;0.30;;;-3.00;99.90;;;;;;5103195;28;20298;-61
2021/12/25 05:16:41;;;;;;;1.48;0.10;;;-3.00;99.90;;;;;;5100202;28;20067;-61
2021/12/25 05:19:06;;;;;;;3.65;0.30;;;-3.00;99.90;;;;;;5095510;28;20131;-61
2021/12/25 05:21:32;;;;;;;1.90;0.28;;;-3.00;99.90;;;;;;5080167;28;20127;-61
2021/12/25 05:23:59;;;;;;;2.65;0.20;;;-3.00;99.90;;;;;;5077633;28;20035;-61
2021/12/25 05:26:25;;;;;;;2.58;0.10;;;-3.00;99.90;;;;;;5099095;28;20089;-61
2021/12/25 05:28:58;;;;;;;1.52;0.30;;;-2.80;99.90;;;;;;5109241;27;20478;-61
2021/12/25 05:31:25;;;;;;;0.63;0.13;;;-3.00;99.90;;;;;;5078760;28;20048;-61
2021/12/25 05:33:51;;;;;;;1.65;0.20;;;-3.10;99.90;;;;;;5080549;28;20497;-61
2021/12/25 05:36:17;;;;;;;2.38;0.30;;;-3.10;99.90;;;;;;5079677;28;20035;-61
2021/12/25 05:38:43;;;;;;;2.05;0.15;;;-3.10;99.90;;;;;;5080705;28;20519;-61
2021/12/25 05:41:09;;;;;;;2.42;0.30;;;-3.10;99.90;;;;;;5098213;28;20141;-61
2021/12/25 05:43:35;;;;;;;1.35;0.20;;;-3.10;99.90;;;;;;5077665;28;20115;-61
2021/12/25 05:46:01;;;;;;;2.40;0.17;;;-3.20;99.90;;;;;;5096434;28;20181;-61
2021/12/25 05:48:26;;;;;;;1.98;0.30;;;-3.10;99.90;;;;;;5095915;28;20023;-61
2021/12/25 05:50:52;;;;;;;2.45;0.40;;;-3.20;99.90;;;;;;5081413;28;20035;-61
2021/12/25 05:53:18;;;;;;;2.40;0.20;;;-3.10;99.90;;;;;;5096226;28;20048;-61
2021/12/25 05:55:43;;;;;;;2.22;0.20;;;-3.10;99.90;;;;;;5098641;28;20132;-61
2021/12/25 05:58:09;;;;;;;1.10;0.43;;;-3.20;99.90;;;;;;5080359;28;20393;-61
2021/12/25 06:00:38;;;;;;;2.30;0.30;;;-3.10;99.90;;;;;;5078648;28;20093;-61
2021/12/25 06:03:05;;;;;;;1.50;0.20;;;-3.20;99.90;;;;;;5108915;28;20503;-61
2021/12/25 06:05:30;;;;;;;2.53;0.10;;;-3.20;99.90;;;;;;5076786;28;20241;-61
2021/12/25 06:07:56;;;;;;;2.53;0.20;;;-3.20;99.90;;;;;;5108738;28;20622;-61
2021/12/25 06:10:22;;;;;;;1.58;0.50;;;-3.20;99.90;;;;;;5078443;28;20043;-61
2021/12/25 06:12:49;;;;;;;1.02;0.10;;;-3.20;99.90;;;;;;5078652;28;20039;-61
2021/12/25 06:15:19;;;;;;;2.90;0.20;;;-3.20;99.90;;;;;;5078198;28;20083;-61
2021/12/25 06:17:45;;;;;;;1.83;0.30;;;-3.10;99.90;;;;;;5075278;28;20044;-61
2021/12/25 06:20:11;;;;;;;2.13;0.30;;;-3.10;99.90;;;;;;5093165;28;20405;-61
2021/12/25 06:22:37;;;;;;;4.07;0.10;;;-3.20;99.90;;;;;;5094233;28;20032;-61
2021/12/25 06:25:05;;;;;;;1.48;0.20;;;-3.20;99.90;;;;;;5093619;28;20542;-61
2021/12/25 06:27:30;;;;;;;1.10;0.20;;;-2.90;99.90;;;;;;5063858;28;20048;-61
2021/12/25 06:29:56;;;;;;;1.77;0.20;;;-3.20;99.90;;;;;;5078703;28;20164;-61
2021/12/25 06:32:22;;;;;;;0.85;0.10;;;-3.20;99.90;;;;;;5096226;28;20463;-61
2021/12/25 06:34:48;;;;;;;1.75;0.10;;;-3.20;99.90;;;;;;5076692;28;20079;-61
2021/12/25 06:37:14;;;;;;;2.20;0.10;;;-3.20;99.90;;;;;;5079291;28;20044;-61
2021/12/25 06:39:41;;;;;;;1.30;0.10;;;-3.30;99.90;;;;;;5080358;28;20294;-61
2021/12/25 06:42:08;;;;;;;1.98;0.20;;;-3.30;99.90;;;;;;5079404;28;20032;-61
2021/12/25 06:44:35;;;;;;;2.95;0.15;;;-3.30;99.90;;;;;;5081137;28;20118;-61
2021/12/25 06:47:02;;;;;;;0.43;0.13;;;-3.30;99.90;;;;;;5098729;28;20078;-61
2021/12/25 06:49:28;;;;;;;2.63;0.10;;;-3.20;99.90;;;;;;5099247;28;20043;-61
2021/12/25 06:51:54;;;;;;;4.20;0.15;;;-3.30;99.90;;;;;;5099303;28;20436;-61
2021/12/25 06:54:19;;;;;;;7.72;0.17;;;-3.30;99.90;;;;;;5078111;28;20044;-61
2021/12/25 06:56:47;;;;;;;0.30;0.10;;;-3.30;99.90;;;;;;5097937;28;20036;-61
2021/12/25 06:59:14;;;;;;;1.65;0.10;;;-3.30;99.90;;;;;;5099120;28;20039;-61
2021/12/25 07:01:40;;;;;;;1.20;0.17;;;-3.40;99.90;;;;;;5079910;28;20082;-61
2021/12/25 07:04:07;;;;;;;0.88;0.13;;;-3.40;99.90;;;;;;5080177;28;20552;-61
2021/12/25 07:06:36;;;;;;;1.17;0.10;;;-3.30;99.90;;;;;;5100268;28;20040;-61
2021/12/25 07:09:07;;;;;;;2.15;0.10;;;-3.40;99.90;;;;;;5097555;28;20409;-61
2021/12/25 07:11:33;;;;;;;2.28;0.03;;;-3.40;99.90;;;;;;5099582;27;20116;-61
2021/12/25 07:14:02;;;;;;;0.60;0.50;;;-3.30;99.90;;;;;;5079163;28;20040;-61
2021/12/25 07:16:28;;;;;;;2.40;0.10;;;-3.40;99.90;;;;;;5079488;28;20051;-61
2021/12/25 07:18:54;;;;;;;1.45;0.20;;;-3.40;99.90;;;;;;5110667;27;20039;-61
2021/12/25 07:21:20;;;;;;;0.45;0.10;;;-3.50;99.90;;;;;;5095852;28;20040;-61
2021/12/25 07:23:45;;;;;;;1.30;0.20;;;-3.40;99.90;;;;;;5079762;28;20104;-61
2021/12/25 07:26:11;;;;;;;1.52;0.10;;;-2.50;99.90;;;;;;5099158;28;20501;-61
2021/12/25 07:28:37;;;;;;;1.42;0.13;;;-3.50;99.90;;;;;;5078771;28;20268;-61
2021/12/25 07:31:03;;;;;;;0.30;0.10;;;-3.40;99.90;;;;;;5094851;28;20109;-61
2021/12/25 07:33:29;;;;;;;0.40;0.00;;;-3.50;99.90;;;;;;5076536;28;20540;-61
2021/12/25 07:35:56;;;;;;;0.65;0.10;;;-3.50;99.90;;;;;;5081620;28;20039;-61
2021/12/25 07:38:22;;;;;;;0.43;0.00;;;-3.50;99.90;;;;;;5095911;28;20044;-61
2021/12/25 07:40:50;;;;;;;1.45;0.13;;;-3.60;99.90;;;;;;5079639;28;20043;-61
2021/12/25 07:43:17;;;;;;;1.45;0.10;;;-3.60;99.90;;;;;;5098561;28;20442;-61
2021/12/25 07:45:46;;;;;;;2.17;0.20;;;-3.60;99.90;;;;;;5099581;28;20044;-61
2021/12/25 07:48:11;;;;;;;3.30;0.10;;;-3.60;99.90;;;;;;5081488;28;20615;-61
2021/12/25 07:50:37;;;;;;;1.10;0.10;;;-3.60;99.90;;;;;;5079145;28;20135;-61
2021/12/25 07:53:03;;;;;;;2.25;0.30;;;-3.60;99.90;;;;;;5078384;28;20039;-61
2021/12/25 07:55:30;;;;;;;1.05;0.10;;;-3.60;99.90;;;;;;5112089;27;20048;-61
2021/12/25 07:57:56;;;;;;;2.60;0.30;;;-3.60;99.90;;;;;;5099879;28;20517;-61
2021/12/25 08:00:22;;;;;;;1.10;0.10;;;-3.60;99.90;;;;;;5081699;28;20050;-61
2021/12/25 08:02:48;;;;;;;1.38;0.10;;;-3.60;99.90;;;;;;5097408;28;20036;-61
2021/12/25 08:05:14;;;;;;;0.70;0.10;;;-3.60;99.90;;;;;;5081637;28;20040;-61
2021/12/25 08:07:40;;;;;;;3.20;0.20;;;-3.60;99.90;;;;;;5100833;27;20048;-61
2021/12/25 08:10:13;;;;;;;2.97;0.30;;;-3.60;99.90;;;;;;5081031;28;20052;-61
2021/12/25 08:12:54;;;;;;;1.45;0.08;;;-3.60;99.90;;;;;;5079756;28;20046;-61
2021/12/25 08:15:22;;;;;;;2.80;0.08;;;-3.60;99.90;;;;;;5084421;28;20039;-61
2021/12/25 08:17:48;;;;;;;5.25;0.15;;;-3.60;99.90;;;;;;5082742;28;20043;-61
2021/12/25 08:20:15;;;;;;;4.20;0.30;;;-3.50;99.90;;;;;;5102921;28;20031;-61
2021/12/25 08:22:41;;;;;;;2.15;0.20;;;-3.60;99.90;;;;;;5098867;27;20520;-61
2021/12/25 08:25:08;;;;;;;4.07;0.32;;;-3.60;99.90;;;;;;5099709;28;20036;-61
2021/12/25 08:27:35;;;;;;;3.45;0.10;;;-3.60;99.90;;;;;;5078704;28;20096;-61
2021/12/25 08:30:01;;;;;;;8.00;0.22;;;-3.60;99.90;;;;;;5100859;27;20039;-61
2021/12/25 08:32:26;;;;;;;2.40;0.20;;;-3.60;99.90;;;;;;5079490;28;20040;-61
2021/12/25 08:34:53;;;;;;;0.45;0.05;;;-3.60;99.90;;;;;;5080644;28;20165;-61
2021/12/25 08:37:22;;;;;;;2.50;0.17;;;-3.60;99.90;;;;;;5066402;28;20058;-61
2021/12/25 08:39:49;;;;;;;2.80;0.13;;;-3.60;99.90;;;;;;5098347;28;20047;-61
2021/12/25 08:42:14;;;;;;;2.25;0.17;;;-3.60;99.90;;;;;;5079060;28;20131;-61
2021/12/25 08:44:53;;;;;;;1.73;0.10;;;-3.60;99.90;;;;;;5079849;28;20115;-61
2021/12/25 08:47:19;;;;;;;1.30;0.10;;;-3.60;99.90;;;;;;5100122;28;20482;-61
2021/12/25 08:49:45;;;;;;;1.77;0.50;;;-3.60;99.90;;;;;;5086525;28;20050;-61
2021/12/25 08:52:15;;;;;;;4.13;0.40;;;-3.60;99.90;;;;;;5078867;28;20051;-61
2021/12/25 08:54:42;;;;;;;4.43;0.43;;;-3.10;99.90;;;;;;5098266;28;20032;-61
2021/12/25 08:57:09;;;;;;;0.45;0.10;;;-3.50;99.90;;;;;;5099235;28;20436;-61
2021/12/25 08:59:36;;;;;;;1.33;0.13;;;-3.10;99.90;;;;;;5083857;28;20036;-61
2021/12/25 09:02:05;;;;;;;1.10;0.20;;;-3.40;99.90;;;;;;5097513;28;20039;-61
2021/12/25 09:04:32;;;;;;;0.50;0.17;;;-3.50;99.90;;;;;;5101789;28;20036;-61
2021/12/25 09:06:58;;;;;;;1.85;0.20;;;-3.40;99.90;;;;;;5082881;28;20651;-61
2021/12/25 09:09:23;;;;;;;3.78;0.40;;;-3.30;99.90;;;;;;5102109;28;20036;-61
2021/12/25 09:11:49;;;;;;;1.73;0.10;;;-3.30;99.90;;;;;;5082290;28;20054;-61
2021/12/25 09:14:15;;;;;;;1.20;0.13;;;-3.30;99.90;;;;;;5101797;28;20031;-61
2021/12/25 09:16:41;;;;;;;2.63;0.10;;;-3.20;99.90;;;;;;5084057;28;20362;-61
2021/12/25 09:19:07;;;;;;;0.82;0.20;;;-3.10;99.90;;;;;;5102835;28;20057;-61
2021/12/25 09:21:33;;;;;;;1.20;0.20;;;-3.20;99.90;;;;;;5082669;28;20048;-61
2021/12/25 09:23:59;;;;;;;2.03;0.10;;;-3.20;99.90;;;;;;5082737;28;20046;-61
2021/12/25 09:26:25;;;;;;;1.02;0.10;;;-3.10;99.90;;;;;;5081589;28;20032;-61
2021/12/25 09:28:51;;;;;;;7.43;1.10;;;-3.10;99.90;;;;;;5099339;28;20036;-61
2021/12/25 09:31:16;;;;;;;1.08;0.10;;;-3.10;99.90;;;;;;5080717;28;20062;-61
2021/12/25 09:33:43;;;;;;;0.90;0.10;;;-3.00;99.90;;;;;;5100885;28;20039;-61
2021/12/25 09:36:08;;;;;;;3.10;0.20;;;-3.00;99.90;;;;;;5082724;28;20565;-61
2021/12/25 09:38:35;;;;;;;2.13;0.43;;;-2.70;99.90;;;;;;5078813;28;20055;-61
2021/12/25 09:41:02;;;;;;;1.92;0.20;;;-2.90;99.90;;;;;;5095597;28;20039;-61
2021/12/25 09:43:28;;;;;;;2.33;0.40;;;-2.80;99.90;;;;;;5095570;28;20040;-61
2021/12/25 09:45:55;;;;;;;1.50;0.10;;;-2.80;99.90;;;;;;5095660;28;20035;-61
2021/12/25 09:48:21;;;;;;;2.20;0.20;;;-2.60;99.90;;;;;;5104134;27;20133;-61
2021/12/25 09:50:47;;;;;;;0.70;0.13;;;-2.70;99.90;;;;;;5097294;28;20481;-61
2021/12/25 09:53:15;;;;;;;1.95;0.13;;;-2.50;99.90;;;;;;5063537;28;20134;-61
2021/12/25 09:55:42;;;;;;;0.40;0.20;;;-2.60;99.90;;;;;;5083471;28;20173;-61
2021/12/25 09:58:08;;;;;;;3.88;0.10;;;-2.50;99.90;;;;;;5066965;28;20050;-61
2021/12/25 10:00:36;;;;;;;1.13;0.13;;;-2.50;99.90;;;;;;5082663;28;20114;-61
2021/12/25 10:03:02;;;;;;;0.45;0.10;;;-2.30;99.90;;;;;;5099027;28;20815;-61
2021/12/25 10:05:35;;;;;;;3.28;1.38;;;-2.40;99.90;;;;;;5100241;28;20036;-61
2021/12/25 10:08:15;;;;;;;0.88;0.10;;;-2.40;99.90;;;;;;5085051;28;20052;-61
2021/12/25 10:10:41;;;;;;;1.83;0.10;;;-2.40;99.90;;;;;;5086274;28;20052;-61
2021/12/25 10:13:27;;;;;;;0.98;0.10;;;-2.30;99.90;;;;;;5104329;28;20112;-61
2021/12/25 10:15:56;;;;;;;1.55;0.10;;;-2.30;99.90;;;;;;5105673;27;20054;-61
2021/12/25 10:18:31;;;;;;;4.82;0.35;;;-2.30;99.90;;;;;;5083127;27;20657;-61
2021/12/25 10:21:20;;;;;;;0.95;0.20;;;-2.10;99.90;;;;;;5102675;27;20042;-61
2021/12/25 10:24:06;;;;;;;2.05;0.30;;;-2.00;99.90;;;;;;5114998;27;20048;-61
2021/12/25 10:26:34;;;;;;;1.00;0.20;;;-1.90;99.90;;;;;;5083603;28;20040;-61
2021/12/25 10:28:59;;;;;;;1.35;0.17;;;-1.80;99.90;;;;;;5092240;28;20058;-62
2021/12/25 10:31:32;;;;;;;3.33;0.10;;;-1.70;99.90;;;;;;5083322;28;20940;-61
2021/12/25 10:33:58;;;;;;;3.83;0.20;;;-1.70;99.90;;;;;;5082860;27;20397;-62
2021/12/25 10:36:30;;;;;;;2.95;0.10;;;-1.70;98.70;;;;;;5101900;27;20035;-61
2021/12/25 10:39:13;;;;;;;2.90;0.15;;;-1.60;99.90;;;;;;5085299;28;20047;-61
2021/12/25 10:42:02;;;;;;;0.43;0.13;;;-1.70;99.80;;;;;;5103318;27;20028;-61
2021/12/25 10:44:34;;;;;;;4.57;0.20;;;-1.70;98.40;;;;;;5101544;27;20177;-61
2021/12/25 10:47:03;;;;;;;2.67;0.10;;;-1.60;99.10;;;;;;5106166;28;20686;-61
2021/12/25 10:49:38;;;;;;;4.82;0.17;;;-1.50;98.20;;;;;;5084787;27;20119;-61
2021/12/25 10:52:09;;;;;;;3.25;0.10;;;-1.40;97.50;;;;;;5100422;27;20081;-61
2021/12/25 10:54:39;;;;;;;2.95;0.20;;;-1.30;97.10;;;;;;5071281;28;20093;-61
2021/12/25 10:57:05;;;;;;;2.75;0.30;;;-1.30;98.10;;;;;;5102410;27;20039;-61
2021/12/25 10:59:42;;;;;;;2.28;0.25;;;-1.30;96.30;;;;;;5105277;28;20038;-61
2021/12/25 11:02:08;;;;;;;3.88;0.28;;;-1.30;95.70;;;;;;5100212;28;20430;-62
2021/12/25 11:04:36;;;;;;;0.60;0.17;;;-1.20;96.90;;;;;;5087556;28;20040;-62
2021/12/25 11:07:16;;;;;;;2.28;0.45;;;-1.20;96.50;;;;;;5088890;28;20654;-62
2021/12/25 11:10:06;;;;;;;2.35;0.20;;;-1.10;96.00;;;;;;5103514;28;20139;-61
2021/12/25 11:12:32;;;;;;;2.55;0.20;;;-1.10;96.50;;;;;;5103158;27;20032;-61
2021/12/25 11:15:12;;;;;;;0.25;0.13;;;-0.90;97.10;;;;;;5085557;28;20043;-62
2021/12/25 11:17:40;;;;;;;2.30;0.30;;;-0.80;94.90;;;;;;5102297;27;20043;-61
2021/12/25 11:20:08;;;;;;;1.88;0.20;;;-0.80;94.70;;;;;;5083325;28;20040;-61
2021/12/25 11:23:04;;;;;;;1.35;0.50;;;-0.70;93.90;;;;;;5104279;27;20116;-61
2021/12/25 11:25:31;;;;;;;1.70;0.28;;;-0.50;95.10;;;;;;5086268;27;20039;-62
2021/12/25 11:27:59;;;;;;;3.67;0.20;;;-0.40;94.40;;;;;;5069869;28;20500;-61
2021/12/25 11:30:28;;;;;;;2.42;0.20;;;-0.30;92.70;;;;;;5088931;28;20131;-62
2021/12/25 11:32:55;;;;;;;5.45;0.20;;;-0.40;91.90;;;;;;5081038;28;20035;-61
2021/12/25 11:35:21;;;;;;;1.70;0.20;;;-0.40;92.60;;;;;;5104680;28;20112;-62
2021/12/25 11:37:50;;;;;;;3.65;0.30;;;-0.40;92.00;;;;;;5104338;27;20044;-62
2021/12/25 11:40:19;;;;;;;5.75;0.57;;;-0.40;92.30;;;;;;5103377;28;20123;-61
2021/12/25 11:42:49;;;;;;;1.20;0.20;;;-0.50;91.30;;;;;;5084135;28;20071;-61
2021/12/25 11:45:18;;;;;;;0.98;0.20;;;-0.60;92.40;;;;;;5085344;28;20035;-61
2021/12/25 11:47:47;;;;;;;2.58;0.20;;;-0.60;91.40;;;;;;5103734;28;20039;-62
2021/12/25 11:50:30;;;;;;;3.63;0.88;;;-0.50;92.30;;;;;;5102285;28;20047;-62
2021/12/25 11:53:08;;;;;;;3.83;0.28;;;-0.50;91.50;;;;;;5083511;28;20040;-62
2021/12/25 11:58:52;;;;;;;2.17;0.30;;;-0.50;91.00;;;;;;5082717;28;20482;-62
2021/12/25 12:01:38;;;;;;;6.45;0.40;;;-0.70;92.30;;;;;;5083828;28;20050;-62
2021/12/25 12:04:10;;;;;;;0.70;0.20;;;-0.60;93.10;;;;;;5102182;28;20089;-62
2021/12/25 12:06:48;;;;;;;2.90;0.20;;;-0.50;93.40;;;;;;5117438;27;20401;-61
2021/12/25 12:09:15;;;;;;;2.97;0.30;;;-0.60;91.30;;;;;;5103028;27;20036;-62
2021/12/25 12:11:43;;;;;;;3.10;0.47;;;-0.60;92.40;;;;;;5102692;28;20036;-62
2021/12/25 12:14:17;;;;;;;0.98;0.20;;;-0.30;91.90;;;;;;5084900;28;20051;-62
2021/12/25 12:16:50;;;;;;;1.15;0.20;;;-0.60;91.40;;;;;;5087271;28;20547;-62
2021/12/25 12:19:32;;;;;;;1.95;0.30;;;-0.70;91.40;;;;;;5083321;28;20063;-61
2021/12/25 12:27:40;;;;;;;3.03;0.30;;;-0.70;92.60;;;;;;5102897;28;20062;-61
2021/12/25 12:30:31;;;;;;;3.45;0.20;;;-0.70;92.60;;;;;;5102571;28;20047;-61
2021/12/25 12:32:58;;;;;;;1.13;0.20;;;-0.70;92.30;;;;;;5071709;28;20051;-61
2021/12/25 12:35:35;;;;;;;1.10;0.20;;;-0.80;91.40;;;;;;5082738;28;20083;-61
2021/12/25 12:38:27;;;;;;;1.83;0.38;;;-0.80;93.10;;;;;;5101601;28;20397;-61
2021/12/25 12:41:16;;;;;;;1.05;0.28;;;-0.70;93.20;;;;;;5085151;28;20044;-61
2021/12/25 12:44:05;;;;;;;2.65;1.10;;;-0.70;91.90;;;;;;5083607;28;20521;-61
2021/12/25 12:46:50;;;;;;;5.60;0.80;;;-0.70;92.60;;;;;;5105683;27;20063;-61
2021/12/25 12:49:38;;;;;;;2.78;0.25;;;-0.70;92.30;;;;;;5082041;28;20096;-61
2021/12/25 12:52:19;;;;;;;1.75;0.30;;;-0.80;91.00;;;;;;5093302;28;20094;-62
2021/12/25 12:54:56;;;;;;;3.08;0.57;;;-0.80;92.10;;;;;;5085907;28;20042;-61
2021/12/25 12:57:28;;;;;;;2.28;0.77;;;-0.80;91.50;;;;;;5084713;28;20047;-61
2021/12/25 13:00:15;;;;;;;1.92;0.20;;;-0.80;92.20;;;;;;5103036;28;20035;-61
2021/12/25 13:02:46;;;;;;;0.90;0.25;;;-0.90;91.10;;;;;;5085723;28;20103;-61
2021/12/25 13:05:14;;;;;;;2.58;0.13;;;-0.90;91.90;;;;;;5090683;28;20090;-61
2021/12/25 13:07:43;;;;;;;4.28;0.25;;;-0.90;91.60;;;;;;5085109;28;20069;-61
2021/12/25 13:10:38;;;;;;;2.20;0.20;;;-1.00;91.00;;;;;;5084856;28;20044;-62
2021/12/25 13:13:14;;;;;;;1.35;0.38;;;-0.90;91.70;;;;;;5081758;28;20375;-61
2021/12/25 13:15:43;;;;;;;1.40;0.20;;;-1.00;92.30;;;;;;5104816;28;20557;-61
2021/12/25 13:18:11;;;;;;;0.98;0.20;;;-0.70;91.80;;;;;;5102888;28;20032;-61
2021/12/25 13:20:47;;;;;;;2.58;0.28;;;-1.00;90.90;;;;;;5086067;28;20436;-61
2021/12/25 13:23:22;;;;;;;1.75;0.20;;;-1.00;91.60;;;;;;5083151;28;20062;-61
2021/12/25 13:26:00;;;;;;;2.45;0.10;;;-1.00;91.80;;;;;;5082595;28;20032;-61
2021/12/25 13:28:29;;;;;;;1.38;0.10;;;-1.00;91.90;;;;;;5082635;28;20147;-61
2021/12/25 13:31:00;;;;;;;1.75;0.20;;;-1.00;92.80;;;;;;5101023;28;20040;-61
2021/12/25 13:33:29;;;;;;;3.10;0.30;;;-1.00;92.40;;;;;;5084258;28;20490;-61
2021/12/25 13:36:05;;;;;;;3.47;0.20;;;-1.00;90.30;;;;;;5101949;28;20035;-61
2021/12/25 13:38:44;;;;;;;2.03;0.20;;;-1.10;91.90;;;;;;5085987;28;20058;-61
2021/12/25 13:41:10;;;;;;;1.88;0.30;;;-1.00;90.70;;;;;;5078525;28;20038;-61
2021/12/25 13:43:35;;;;;;;4.20;0.45;;;-1.10;91.20;;;;;;5099923;28;20036;-62
2021/12/25 13:46:01;;;;;;;2.22;0.40;;;-1.10;91.80;;;;;;5087168;27;20039;-62
2021/12/25 13:48:26;;;;;;;3.65;0.50;;;-1.00;92.20;;;;;;5106560;28;20047;-62
2021/12/25 13:51:00;;;;;;;3.70;0.40;;;-1.10;92.00;;;;;;5097620;28;20050;-62
2021/12/25 13:53:28;;;;;;;1.45;0.20;;;-1.00;93.20;;;;;;5108112;28;20561;-62
2021/12/25 13:55:54;;;;;;;2.75;0.20;;;-1.10;92.90;;;;;;5104446;27;20585;-62
2021/12/25 13:58:20;;;;;;;1.80;0.25;;;-0.80;92.60;;;;;;5086842;28;20048;-62
2021/12/25 14:00:50;;;;;;;1.77;0.20;;;-1.10;91.90;;;;;;5106512;28;20035;-62
2021/12/25 14:03:20;;;;;;;3.08;0.47;;;-1.10;91.20;;;;;;5084544;28;20142;-62
2021/12/25 14:05:49;;;;;;;3.53;0.20;;;-1.10;90.90;;;;;;5104722;28;20036;-62
2021/12/25 14:08:19;;;;;;;5.85;0.32;;;-1.20;90.10;;;;;;5106754;28;20477;-62
2021/12/25 14:10:44;;;;;;;3.65;0.30;;;-1.20;91.20;;;;;;5104706;28;20047;-62
2021/12/25 14:13:17;;;;;;;2.22;0.68;;;-1.20;91.40;;;;;;5086989;28;20044;-62
2021/12/25 14:15:51;;;;;;;1.65;0.20;;;-1.20;91.30;;;;;;5104635;28;20168;-62
2021/12/25 14:18:19;;;;;;;1.75;0.10;;;-1.30;92.10;;;;;;5106066;28;20104;-62
2021/12/25 14:20:45;;;;;;;3.50;0.65;;;-1.20;92.30;;;;;;5103551;27;20386;-62
2021/12/25 14:23:13;;;;;;;1.40;0.20;;;-1.30;91.80;;;;;;5103564;28;20046;-62
2021/12/25 14:25:43;;;;;;;1.30;0.20;;;-1.20;92.20;;;;;;5087953;28;20043;-62
2021/12/25 14:28:22;;;;;;;9.20;0.40;;;-1.20;92.20;;;;;;5086481;28;20040;-62